sensor_id;sensor_type;location;lat;lon;timestamp;temperature;humidity
7658;DHT22;8462;53.156;8.220;2022-07-29T00:00:08;16.40;68.10
7658;DHT22;8462;53.156;8.220;2022-07-29T00:02:35;16.30;68.30
7658;DHT22;8462;53.156;8.220;2022-07-29T00:05:03;16.30;68.40
7658;DHT22;8462;53.156;8.220;2022-07-29T00:07:30;16.30;68.60
7658;DHT22;8462;53.156;8.220;2022-07-29T00:09:59;16.20;69.80
7658;DHT22;8462;53.156;8.220;2022-07-29T00:12:27;16.20;69.10
7658;DHT22;8462;53.156;8.220;2022-07-29T00:14:55;16.10;69.10
7658;DHT22;8462;53.156;8.220;2022-07-29T00:17:22;16.10;69.40
7658;DHT22;8462;53.156;8.220;2022-07-29T00:19:49;16.00;69.60
7658;DHT22;8462;53.156;8.220;2022-07-29T00:22:16;16.00;69.70
7658;DHT22;8462;53.156;8.220;2022-07-29T00:24:43;16.10;69.80
7658;DHT22;8462;53.156;8.220;2022-07-29T00:27:11;16.00;69.90
7658;DHT22;8462;53.156;8.220;2022-07-29T00:29:38;16.00;70.00
7658;DHT22;8462;53.156;8.220;2022-07-29T00:32:06;16.00;70.20
7658;DHT22;8462;53.156;8.220;2022-07-29T00:34:33;15.90;70.40
7658;DHT22;8462;53.156;8.220;2022-07-29T00:37:17;15.90;70.50
7658;DHT22;8462;53.156;8.220;2022-07-29T00:39:44;15.90;70.70
7658;DHT22;8462;53.156;8.220;2022-07-29T00:42:12;15.90;70.80
7658;DHT22;8462;53.156;8.220;2022-07-29T00:44:40;15.80;71.00
7658;DHT22;8462;53.156;8.220;2022-07-29T00:47:08;15.90;70.90
7658;DHT22;8462;53.156;8.220;2022-07-29T00:49:35;15.90;71.10
7658;DHT22;8462;53.156;8.220;2022-07-29T00:52:03;15.80;71.10
7658;DHT22;8462;53.156;8.220;2022-07-29T00:54:32;15.90;71.20
7658;DHT22;8462;53.156;8.220;2022-07-29T00:56:59;15.90;71.10
7658;DHT22;8462;53.156;8.220;2022-07-29T00:59:28;15.90;71.10
7658;DHT22;8462;53.156;8.220;2022-07-29T01:01:55;15.90;71.30
7658;DHT22;8462;53.156;8.220;2022-07-29T01:04:22;15.80;71.30
7658;DHT22;8462;53.156;8.220;2022-07-29T01:06:49;15.80;71.50
7658;DHT22;8462;53.156;8.220;2022-07-29T01:09:17;15.80;71.50
7658;DHT22;8462;53.156;8.220;2022-07-29T01:11:45;15.80;71.50
7658;DHT22;8462;53.156;8.220;2022-07-29T01:14:14;15.80;71.70
7658;DHT22;8462;53.156;8.220;2022-07-29T01:16:48;15.80;71.80
7658;DHT22;8462;53.156;8.220;2022-07-29T01:19:41;15.80;71.90
7658;DHT22;8462;53.156;8.220;2022-07-29T01:22:24;15.80;72.00
7658;DHT22;8462;53.156;8.220;2022-07-29T01:25:17;15.70;72.20
7658;DHT22;8462;53.156;8.220;2022-07-29T01:28:07;15.60;72.30
7658;DHT22;8462;53.156;8.220;2022-07-29T01:30:38;15.60;72.60
7658;DHT22;8462;53.156;8.220;2022-07-29T01:33:10;15.60;72.70
7658;DHT22;8462;53.156;8.220;2022-07-29T01:36:00;15.60;72.60
7658;DHT22;8462;53.156;8.220;2022-07-29T01:38:28;15.60;72.50
7658;DHT22;8462;53.156;8.220;2022-07-29T01:41:01;15.70;72.40
7658;DHT22;8462;53.156;8.220;2022-07-29T01:43:42;15.70;72.40
7658;DHT22;8462;53.156;8.220;2022-07-29T01:46:15;15.60;72.30
7658;DHT22;8462;53.156;8.220;2022-07-29T01:48:47;15.70;72.40
7658;DHT22;8462;53.156;8.220;2022-07-29T01:51:18;15.60;72.40
7658;DHT22;8462;53.156;8.220;2022-07-29T01:53:50;15.70;72.30
7658;DHT22;8462;53.156;8.220;2022-07-29T01:56:19;15.70;72.30
7658;DHT22;8462;53.156;8.220;2022-07-29T01:58:47;15.70;72.10
7658;DHT22;8462;53.156;8.220;2022-07-29T02:01:19;15.70;72.20
7658;DHT22;8462;53.156;8.220;2022-07-29T02:03:47;15.70;72.10
7658;DHT22;8462;53.156;8.220;2022-07-29T02:06:19;15.70;72.10
7658;DHT22;8462;53.156;8.220;2022-07-29T02:08:48;15.70;72.10
7658;DHT22;8462;53.156;8.220;2022-07-29T02:11:16;15.70;72.30
7658;DHT22;8462;53.156;8.220;2022-07-29T02:13:44;15.60;72.30
7658;DHT22;8462;53.156;8.220;2022-07-29T02:16:12;15.60;72.50
7658;DHT22;8462;53.156;8.220;2022-07-29T02:18:43;15.60;72.50
7658;DHT22;8462;53.156;8.220;2022-07-29T02:21:13;15.60;72.50
7658;DHT22;8462;53.156;8.220;2022-07-29T02:23:44;15.60;72.50
7658;DHT22;8462;53.156;8.220;2022-07-29T02:26:12;15.60;72.50
7658;DHT22;8462;53.156;8.220;2022-07-29T02:28:40;15.50;72.60
7658;DHT22;8462;53.156;8.220;2022-07-29T02:31:09;15.50;72.80
7658;DHT22;8462;53.156;8.220;2022-07-29T02:33:36;15.40;73.00
7658;DHT22;8462;53.156;8.220;2022-07-29T02:36:06;15.40;73.20
7658;DHT22;8462;53.156;8.220;2022-07-29T02:38:34;15.40;73.20
7658;DHT22;8462;53.156;8.220;2022-07-29T02:41:20;15.40;73.20
7658;DHT22;8462;53.156;8.220;2022-07-29T02:43:50;15.50;73.00
7658;DHT22;8462;53.156;8.220;2022-07-29T02:46:21;15.50;72.70
7658;DHT22;8462;53.156;8.220;2022-07-29T02:48:58;15.50;72.60
7658;DHT22;8462;53.156;8.220;2022-07-29T02:51:32;15.60;72.50
7658;DHT22;8462;53.156;8.220;2022-07-29T02:54:01;15.60;72.40
7658;DHT22;8462;53.156;8.220;2022-07-29T02:56:33;15.60;72.40
7658;DHT22;8462;53.156;8.220;2022-07-29T02:59:06;15.60;72.30
7658;DHT22;8462;53.156;8.220;2022-07-29T03:01:35;15.60;72.50
7658;DHT22;8462;53.156;8.220;2022-07-29T03:04:05;15.50;72.60
7658;DHT22;8462;53.156;8.220;2022-07-29T03:06:37;15.50;72.50
7658;DHT22;8462;53.156;8.220;2022-07-29T03:09:05;15.50;72.60
7658;DHT22;8462;53.156;8.220;2022-07-29T03:11:33;15.50;72.80
7658;DHT22;8462;53.156;8.220;2022-07-29T03:14:01;15.50;72.80
7658;DHT22;8462;53.156;8.220;2022-07-29T03:16:29;15.50;72.90
7658;DHT22;8462;53.156;8.220;2022-07-29T03:18:56;15.40;72.70
7658;DHT22;8462;53.156;8.220;2022-07-29T03:21:23;15.50;72.90
7658;DHT22;8462;53.156;8.220;2022-07-29T03:23:51;15.50;72.70
7658;DHT22;8462;53.156;8.220;2022-07-29T03:26:19;15.50;72.50
7658;DHT22;8462;53.156;8.220;2022-07-29T03:28:46;15.50;72.40
7658;DHT22;8462;53.156;8.220;2022-07-29T03:31:13;15.50;72.40
7658;DHT22;8462;53.156;8.220;2022-07-29T03:33:40;15.50;72.40
7658;DHT22;8462;53.156;8.220;2022-07-29T03:36:07;15.50;72.40
7658;DHT22;8462;53.156;8.220;2022-07-29T03:38:35;15.50;72.40
7658;DHT22;8462;53.156;8.220;2022-07-29T03:41:07;15.50;72.60
7658;DHT22;8462;53.156;8.220;2022-07-29T03:43:38;15.50;72.70
7658;DHT22;8462;53.156;8.220;2022-07-29T03:46:07;15.40;72.90
7658;DHT22;8462;53.156;8.220;2022-07-29T03:48:37;15.40;73.00
7658;DHT22;8462;53.156;8.220;2022-07-29T03:51:06;15.40;73.10
7658;DHT22;8462;53.156;8.220;2022-07-29T03:53:33;15.40;72.90
7658;DHT22;8462;53.156;8.220;2022-07-29T03:56:02;15.40;72.80
7658;DHT22;8462;53.156;8.220;2022-07-29T03:58:31;15.50;72.80
7658;DHT22;8462;53.156;8.220;2022-07-29T04:00:59;15.50;72.70
7658;DHT22;8462;53.156;8.220;2022-07-29T04:03:26;15.60;72.50
7658;DHT22;8462;53.156;8.220;2022-07-29T04:06:00;15.60;72.40
7658;DHT22;8462;53.156;8.220;2022-07-29T04:08:28;15.60;72.30
7658;DHT22;8462;53.156;8.220;2022-07-29T04:10:55;15.60;72.30
7658;DHT22;8462;53.156;8.220;2022-07-29T04:13:28;15.60;72.30
7658;DHT22;8462;53.156;8.220;2022-07-29T04:15:57;15.60;72.50
7658;DHT22;8462;53.156;8.220;2022-07-29T04:18:24;15.50;72.40
7658;DHT22;8462;53.156;8.220;2022-07-29T04:20:51;15.50;72.60
7658;DHT22;8462;53.156;8.220;2022-07-29T04:23:18;15.50;72.80
7658;DHT22;8462;53.156;8.220;2022-07-29T04:25:45;15.40;72.90
7658;DHT22;8462;53.156;8.220;2022-07-29T04:28:12;15.40;73.00
7658;DHT22;8462;53.156;8.220;2022-07-29T04:30:39;15.40;72.90
7658;DHT22;8462;53.156;8.220;2022-07-29T04:33:07;15.50;72.80
7658;DHT22;8462;53.156;8.220;2022-07-29T04:35:36;15.50;72.70
7658;DHT22;8462;53.156;8.220;2022-07-29T04:38:04;15.50;72.70
7658;DHT22;8462;53.156;8.220;2022-07-29T04:40:31;15.60;72.70
7658;DHT22;8462;53.156;8.220;2022-07-29T04:42:59;15.50;72.40
7658;DHT22;8462;53.156;8.220;2022-07-29T04:45:26;15.60;72.60
7658;DHT22;8462;53.156;8.220;2022-07-29T04:47:53;15.60;72.30
7658;DHT22;8462;53.156;8.220;2022-07-29T04:50:21;15.70;72.30
7658;DHT22;8462;53.156;8.220;2022-07-29T04:52:48;15.70;72.30
7658;DHT22;8462;53.156;8.220;2022-07-29T04:55:15;15.70;72.20
7658;DHT22;8462;53.156;8.220;2022-07-29T04:57:42;15.60;72.20
7658;DHT22;8462;53.156;8.220;2022-07-29T05:00:10;15.70;72.30
7658;DHT22;8462;53.156;8.220;2022-07-29T05:02:38;15.70;72.10
7658;DHT22;8462;53.156;8.220;2022-07-29T05:05:06;15.70;72.20
7658;DHT22;8462;53.156;8.220;2022-07-29T05:07:34;15.80;72.30
7658;DHT22;8462;53.156;8.220;2022-07-29T05:10:01;15.80;72.00
7658;DHT22;8462;53.156;8.220;2022-07-29T05:12:28;15.90;72.00
7658;DHT22;8462;53.156;8.220;2022-07-29T05:14:55;15.90;71.70
7658;DHT22;8462;53.156;8.220;2022-07-29T05:17:22;15.90;71.50
7658;DHT22;8462;53.156;8.220;2022-07-29T05:19:49;15.90;71.70
7658;DHT22;8462;53.156;8.220;2022-07-29T05:22:17;15.90;72.80
7658;DHT22;8462;53.156;8.220;2022-07-29T05:24:46;15.90;71.70
7658;DHT22;8462;53.156;8.220;2022-07-29T05:27:13;16.00;71.80
7658;DHT22;8462;53.156;8.220;2022-07-29T05:29:40;16.00;71.80
7658;DHT22;8462;53.156;8.220;2022-07-29T05:32:07;16.00;71.80
7658;DHT22;8462;53.156;8.220;2022-07-29T05:34:34;16.10;71.70
7658;DHT22;8462;53.156;8.220;2022-07-29T05:37:01;16.10;71.60
7658;DHT22;8462;53.156;8.220;2022-07-29T05:39:28;16.20;71.40
7658;DHT22;8462;53.156;8.220;2022-07-29T05:41:56;16.30;71.30
7658;DHT22;8462;53.156;8.220;2022-07-29T05:44:23;16.40;71.20
7658;DHT22;8462;53.156;8.220;2022-07-29T05:46:50;16.40;71.10
7658;DHT22;8462;53.156;8.220;2022-07-29T05:49:17;16.50;71.00
7658;DHT22;8462;53.156;8.220;2022-07-29T05:51:44;16.50;70.80
7658;DHT22;8462;53.156;8.220;2022-07-29T05:54:11;16.50;70.90
7658;DHT22;8462;53.156;8.220;2022-07-29T05:56:38;16.50;71.10
7658;DHT22;8462;53.156;8.220;2022-07-29T05:59:06;16.60;71.00
7658;DHT22;8462;53.156;8.220;2022-07-29T06:01:33;16.60;70.80
7658;DHT22;8462;53.156;8.220;2022-07-29T06:04:05;16.70;70.70
7658;DHT22;8462;53.156;8.220;2022-07-29T06:06:32;16.90;70.80
7658;DHT22;8462;53.156;8.220;2022-07-29T06:08:59;17.20;69.90
7658;DHT22;8462;53.156;8.220;2022-07-29T06:11:26;17.50;69.00
7658;DHT22;8462;53.156;8.220;2022-07-29T06:13:52;17.60;68.30
7658;DHT22;8462;53.156;8.220;2022-07-29T06:16:21;17.90;67.50
7658;DHT22;8462;53.156;8.220;2022-07-29T06:18:48;18.10;67.10
7658;DHT22;8462;53.156;8.220;2022-07-29T06:21:15;18.40;66.10
7658;DHT22;8462;53.156;8.220;2022-07-29T06:23:42;18.70;65.40
7658;DHT22;8462;53.156;8.220;2022-07-29T06:26:09;18.90;64.20
7658;DHT22;8462;53.156;8.220;2022-07-29T06:28:36;18.90;63.90
7658;DHT22;8462;53.156;8.220;2022-07-29T06:31:03;19.00;63.80
7658;DHT22;8462;53.156;8.220;2022-07-29T06:33:31;18.90;63.60
7658;DHT22;8462;53.156;8.220;2022-07-29T06:36:03;18.80;64.20
7658;DHT22;8462;53.156;8.220;2022-07-29T06:38:30;18.60;64.70
7658;DHT22;8462;53.156;8.220;2022-07-29T06:40:57;18.60;65.00
7658;DHT22;8462;53.156;8.220;2022-07-29T06:43:28;18.60;65.30
7658;DHT22;8462;53.156;8.220;2022-07-29T06:45:59;18.60;65.40
7658;DHT22;8462;53.156;8.220;2022-07-29T06:48:27;18.40;65.90
7658;DHT22;8462;53.156;8.220;2022-07-29T06:50:55;18.40;66.30
7658;DHT22;8462;53.156;8.220;2022-07-29T06:53:23;18.50;66.50
7658;DHT22;8462;53.156;8.220;2022-07-29T06:55:50;18.60;66.30
7658;DHT22;8462;53.156;8.220;2022-07-29T06:58:17;18.60;66.10
7658;DHT22;8462;53.156;8.220;2022-07-29T07:00:54;18.70;66.00
7658;DHT22;8462;53.156;8.220;2022-07-29T07:03:21;18.70;66.40
7658;DHT22;8462;53.156;8.220;2022-07-29T07:05:49;18.80;66.10
7658;DHT22;8462;53.156;8.220;2022-07-29T07:08:17;19.00;65.90
7658;DHT22;8462;53.156;8.220;2022-07-29T07:10:45;19.20;65.40
7658;DHT22;8462;53.156;8.220;2022-07-29T07:13:11;19.50;64.70
7658;DHT22;8462;53.156;8.220;2022-07-29T07:15:38;19.80;63.70
7658;DHT22;8462;53.156;8.220;2022-07-29T07:18:06;20.20;62.10
7658;DHT22;8462;53.156;8.220;2022-07-29T07:20:33;20.70;61.30
7658;DHT22;8462;53.156;8.220;2022-07-29T07:23:01;20.90;60.00
7658;DHT22;8462;53.156;8.220;2022-07-29T07:25:31;21.30;60.10
7658;DHT22;8462;53.156;8.220;2022-07-29T07:27:58;21.60;58.50
7658;DHT22;8462;53.156;8.220;2022-07-29T07:30:25;21.80;57.70
7658;DHT22;8462;53.156;8.220;2022-07-29T07:32:53;22.00;57.30
7658;DHT22;8462;53.156;8.220;2022-07-29T07:35:21;22.50;55.70
7658;DHT22;8462;53.156;8.220;2022-07-29T07:37:48;22.70;55.50
7658;DHT22;8462;53.156;8.220;2022-07-29T07:40:15;23.20;54.60
7658;DHT22;8462;53.156;8.220;2022-07-29T07:42:43;23.70;53.30
7658;DHT22;8462;53.156;8.220;2022-07-29T07:45:10;24.30;51.70
7658;DHT22;8462;53.156;8.220;2022-07-29T07:47:38;25.10;49.90
7658;DHT22;8462;53.156;8.220;2022-07-29T07:50:07;25.60;48.70
7658;DHT22;8462;53.156;8.220;2022-07-29T07:52:34;25.50;47.60
7658;DHT22;8462;53.156;8.220;2022-07-29T07:55:05;24.90;48.40
7658;DHT22;8462;53.156;8.220;2022-07-29T07:57:31;24.60;48.80
7658;DHT22;8462;53.156;8.220;2022-07-29T08:00:00;24.00;49.40
7658;DHT22;8462;53.156;8.220;2022-07-29T08:02:27;23.50;51.00
7658;DHT22;8462;53.156;8.220;2022-07-29T08:04:54;23.00;52.00
7658;DHT22;8462;53.156;8.220;2022-07-29T08:07:20;22.70;53.40
7658;DHT22;8462;53.156;8.220;2022-07-29T08:09:47;22.60;53.80
7658;DHT22;8462;53.156;8.220;2022-07-29T08:12:14;22.50;53.80
7658;DHT22;8462;53.156;8.220;2022-07-29T08:14:41;22.50;54.10
7658;DHT22;8462;53.156;8.220;2022-07-29T08:17:10;22.40;54.20
7658;DHT22;8462;53.156;8.220;2022-07-29T08:19:37;22.40;54.50
7658;DHT22;8462;53.156;8.220;2022-07-29T08:22:04;22.50;54.40
7658;DHT22;8462;53.156;8.220;2022-07-29T08:24:36;22.40;54.90
7658;DHT22;8462;53.156;8.220;2022-07-29T08:27:14;22.60;54.30
7658;DHT22;8462;53.156;8.220;2022-07-29T08:29:45;22.70;54.30
7658;DHT22;8462;53.156;8.220;2022-07-29T08:32:20;22.80;53.90
7658;DHT22;8462;53.156;8.220;2022-07-29T08:34:53;23.00;54.40
7658;DHT22;8462;53.156;8.220;2022-07-29T08:37:19;23.20;53.20
7658;DHT22;8462;53.156;8.220;2022-07-29T08:39:46;23.30;52.60
7658;DHT22;8462;53.156;8.220;2022-07-29T08:42:15;23.40;52.80
7658;DHT22;8462;53.156;8.220;2022-07-29T08:44:42;23.40;52.40
7658;DHT22;8462;53.156;8.220;2022-07-29T08:47:14;23.30;52.70
7658;DHT22;8462;53.156;8.220;2022-07-29T08:49:42;23.30;52.40
7658;DHT22;8462;53.156;8.220;2022-07-29T08:52:14;23.30;52.80
7658;DHT22;8462;53.156;8.220;2022-07-29T08:54:44;23.50;52.60
7658;DHT22;8462;53.156;8.220;2022-07-29T08:57:12;23.60;52.60
7658;DHT22;8462;53.156;8.220;2022-07-29T08:59:42;23.70;52.50
7658;DHT22;8462;53.156;8.220;2022-07-29T09:02:16;23.70;52.60
7658;DHT22;8462;53.156;8.220;2022-07-29T09:04:47;23.70;52.60
7658;DHT22;8462;53.156;8.220;2022-07-29T09:07:15;23.70;52.10
7658;DHT22;8462;53.156;8.220;2022-07-29T09:09:46;23.70;52.00
7658;DHT22;8462;53.156;8.220;2022-07-29T09:12:13;23.70;52.20
7658;DHT22;8462;53.156;8.220;2022-07-29T09:14:41;23.70;52.40
7658;DHT22;8462;53.156;8.220;2022-07-29T09:17:09;23.80;51.90
7658;DHT22;8462;53.156;8.220;2022-07-29T09:19:38;23.90;51.70
7658;DHT22;8462;53.156;8.220;2022-07-29T09:22:07;23.90;52.00
7658;DHT22;8462;53.156;8.220;2022-07-29T09:24:43;23.90;51.70
7658;DHT22;8462;53.156;8.220;2022-07-29T09:27:18;23.80;51.90
7658;DHT22;8462;53.156;8.220;2022-07-29T09:29:55;24.00;51.50
7658;DHT22;8462;53.156;8.220;2022-07-29T09:32:23;24.10;51.30
7658;DHT22;8462;53.156;8.220;2022-07-29T09:35:13;24.20;50.50
7658;DHT22;8462;53.156;8.220;2022-07-29T09:37:43;24.30;50.40
7658;DHT22;8462;53.156;8.220;2022-07-29T09:40:15;24.40;50.20
7658;DHT22;8462;53.156;8.220;2022-07-29T09:42:43;24.70;50.30
7658;DHT22;8462;53.156;8.220;2022-07-29T09:45:11;25.00;50.00
7658;DHT22;8462;53.156;8.220;2022-07-29T09:47:42;25.20;48.50
7658;DHT22;8462;53.156;8.220;2022-07-29T09:50:11;25.30;48.30
7658;DHT22;8462;53.156;8.220;2022-07-29T09:52:50;25.50;48.10
7658;DHT22;8462;53.156;8.220;2022-07-29T09:55:17;25.50;47.30
7658;DHT22;8462;53.156;8.220;2022-07-29T09:57:45;25.50;47.50
7658;DHT22;8462;53.156;8.220;2022-07-29T10:00:14;25.50;47.30
7658;DHT22;8462;53.156;8.220;2022-07-29T10:02:43;25.50;47.30
7658;DHT22;8462;53.156;8.220;2022-07-29T10:05:19;25.50;46.80
7658;DHT22;8462;53.156;8.220;2022-07-29T10:07:52;25.60;47.10
7658;DHT22;8462;53.156;8.220;2022-07-29T10:10:21;25.80;47.10
7658;DHT22;8462;53.156;8.220;2022-07-29T10:12:54;26.20;46.50
7658;DHT22;8462;53.156;8.220;2022-07-29T10:15:22;26.30;45.20
7658;DHT22;8462;53.156;8.220;2022-07-29T10:17:50;26.70;46.00
7658;DHT22;8462;53.156;8.220;2022-07-29T10:20:17;26.90;44.50
7658;DHT22;8462;53.156;8.220;2022-07-29T10:22:47;27.10;45.00
7658;DHT22;8462;53.156;8.220;2022-07-29T10:25:20;27.50;44.60
7658;DHT22;8462;53.156;8.220;2022-07-29T10:27:54;27.80;42.50
7658;DHT22;8462;53.156;8.220;2022-07-29T10:30:23;27.70;42.20
7658;DHT22;8462;53.156;8.220;2022-07-29T10:33:12;27.50;42.10
7658;DHT22;8462;53.156;8.220;2022-07-29T10:35:59;27.30;42.80
7658;DHT22;8462;53.156;8.220;2022-07-29T10:38:44;27.10;42.70
7658;DHT22;8462;53.156;8.220;2022-07-29T10:41:31;27.00;43.00
7658;DHT22;8462;53.156;8.220;2022-07-29T10:44:05;27.00;43.20
7658;DHT22;8462;53.156;8.220;2022-07-29T10:46:40;26.90;42.50
7658;DHT22;8462;53.156;8.220;2022-07-29T10:49:13;26.80;42.70
7658;DHT22;8462;53.156;8.220;2022-07-29T10:51:54;26.70;43.40
7658;DHT22;8462;53.156;8.220;2022-07-29T10:54:42;26.90;43.50
7658;DHT22;8462;53.156;8.220;2022-07-29T10:57:17;27.00;43.00
7658;DHT22;8462;53.156;8.220;2022-07-29T11:00:31;27.10;43.60
7658;DHT22;8462;53.156;8.220;2022-07-29T11:02:58;27.30;43.10
7658;DHT22;8462;53.156;8.220;2022-07-29T11:05:59;27.40;42.50
7658;DHT22;8462;53.156;8.220;2022-07-29T11:08:26;27.40;42.80
7658;DHT22;8462;53.156;8.220;2022-07-29T11:14:07;27.70;42.60
7658;DHT22;8462;53.156;8.220;2022-07-29T11:16:59;27.90;42.10
7658;DHT22;8462;53.156;8.220;2022-07-29T11:19:28;28.00;42.10
7658;DHT22;8462;53.156;8.220;2022-07-29T11:21:55;28.10;41.50
7658;DHT22;8462;53.156;8.220;2022-07-29T11:24:24;28.00;41.20
7658;DHT22;8462;53.156;8.220;2022-07-29T11:27:14;28.20;41.30
7658;DHT22;8462;53.156;8.220;2022-07-29T11:29:51;28.40;40.40
7658;DHT22;8462;53.156;8.220;2022-07-29T11:32:19;28.40;40.30
7658;DHT22;8462;53.156;8.220;2022-07-29T11:35:16;28.30;40.20
7658;DHT22;8462;53.156;8.220;2022-07-29T11:37:44;28.20;40.90
7658;DHT22;8462;53.156;8.220;2022-07-29T11:40:16;28.20;40.00
7658;DHT22;8462;53.156;8.220;2022-07-29T11:42:48;28.10;40.00
7658;DHT22;8462;53.156;8.220;2022-07-29T11:45:25;28.10;40.40
7658;DHT22;8462;53.156;8.220;2022-07-29T11:47:58;28.00;40.60
7658;DHT22;8462;53.156;8.220;2022-07-29T11:50:33;27.90;40.80
7658;DHT22;8462;53.156;8.220;2022-07-29T11:53:03;27.80;41.50
7658;DHT22;8462;53.156;8.220;2022-07-29T11:55:30;27.70;41.30
7658;DHT22;8462;53.156;8.220;2022-07-29T11:58:01;27.80;41.90
7658;DHT22;8462;53.156;8.220;2022-07-29T12:00:31;27.80;41.40
7658;DHT22;8462;53.156;8.220;2022-07-29T12:03:03;27.70;41.70
7658;DHT22;8462;53.156;8.220;2022-07-29T12:05:33;27.50;42.30
7658;DHT22;8462;53.156;8.220;2022-07-29T12:08:12;27.60;42.40
7658;DHT22;8462;53.156;8.220;2022-07-29T12:10:39;27.50;42.70
7658;DHT22;8462;53.156;8.220;2022-07-29T12:13:07;27.50;42.60
7658;DHT22;8462;53.156;8.220;2022-07-29T12:15:37;27.40;42.80
7658;DHT22;8462;53.156;8.220;2022-07-29T12:18:14;27.30;42.90
7658;DHT22;8462;53.156;8.220;2022-07-29T12:20:42;27.30;43.30
7658;DHT22;8462;53.156;8.220;2022-07-29T12:23:10;27.40;42.90
7658;DHT22;8462;53.156;8.220;2022-07-29T12:25:39;27.30;43.10
7658;DHT22;8462;53.156;8.220;2022-07-29T12:28:08;27.30;43.20
7658;DHT22;8462;53.156;8.220;2022-07-29T12:30:39;27.30;43.40
7658;DHT22;8462;53.156;8.220;2022-07-29T12:33:18;27.40;43.70
7658;DHT22;8462;53.156;8.220;2022-07-29T12:35:48;27.50;43.60
7658;DHT22;8462;53.156;8.220;2022-07-29T12:38:16;27.40;42.90
7658;DHT22;8462;53.156;8.220;2022-07-29T12:40:45;27.30;43.00
7658;DHT22;8462;53.156;8.220;2022-07-29T12:43:13;27.30;43.70
7658;DHT22;8462;53.156;8.220;2022-07-29T12:45:43;27.30;43.80
7658;DHT22;8462;53.156;8.220;2022-07-29T12:48:11;27.40;43.40
7658;DHT22;8462;53.156;8.220;2022-07-29T12:50:55;27.50;43.40
7658;DHT22;8462;53.156;8.220;2022-07-29T12:53:23;27.50;42.80
7658;DHT22;8462;53.156;8.220;2022-07-29T12:55:51;27.50;43.20
7658;DHT22;8462;53.156;8.220;2022-07-29T12:58:34;27.60;43.20
7658;DHT22;8462;53.156;8.220;2022-07-29T13:01:05;27.70;43.20
7658;DHT22;8462;53.156;8.220;2022-07-29T13:03:47;27.80;43.40
7658;DHT22;8462;53.156;8.220;2022-07-29T13:06:36;27.90;42.10
7658;DHT22;8462;53.156;8.220;2022-07-29T13:09:07;27.80;41.80
7658;DHT22;8462;53.156;8.220;2022-07-29T13:11:36;27.80;42.30
7658;DHT22;8462;53.156;8.220;2022-07-29T13:14:04;27.90;41.40
7658;DHT22;8462;53.156;8.220;2022-07-29T13:16:32;28.00;41.60
7658;DHT22;8462;53.156;8.220;2022-07-29T13:19:08;28.00;41.10
7658;DHT22;8462;53.156;8.220;2022-07-29T13:21:37;28.00;40.80
7658;DHT22;8462;53.156;8.220;2022-07-29T13:24:06;27.90;40.60
7658;DHT22;8462;53.156;8.220;2022-07-29T13:26:33;28.00;39.80
7658;DHT22;8462;53.156;8.220;2022-07-29T13:29:00;27.90;39.80
7658;DHT22;8462;53.156;8.220;2022-07-29T13:31:27;27.80;40.30
7658;DHT22;8462;53.156;8.220;2022-07-29T13:33:55;27.80;40.20
7658;DHT22;8462;53.156;8.220;2022-07-29T13:36:22;27.80;40.10
7658;DHT22;8462;53.156;8.220;2022-07-29T13:38:49;27.80;39.90
7658;DHT22;8462;53.156;8.220;2022-07-29T13:41:16;27.90;39.60
7658;DHT22;8462;53.156;8.220;2022-07-29T13:43:43;27.90;40.00
7658;DHT22;8462;53.156;8.220;2022-07-29T13:46:10;27.90;40.00
7658;DHT22;8462;53.156;8.220;2022-07-29T13:48:37;27.80;39.50
7658;DHT22;8462;53.156;8.220;2022-07-29T13:51:05;27.60;39.90
7658;DHT22;8462;53.156;8.220;2022-07-29T13:53:32;27.50;40.10
7658;DHT22;8462;53.156;8.220;2022-07-29T13:55:59;27.50;40.40
7658;DHT22;8462;53.156;8.220;2022-07-29T13:58:27;27.50;40.20
7658;DHT22;8462;53.156;8.220;2022-07-29T14:00:55;27.50;40.10
7658;DHT22;8462;53.156;8.220;2022-07-29T14:03:23;27.50;40.00
7658;DHT22;8462;53.156;8.220;2022-07-29T14:05:50;27.50;40.00
7658;DHT22;8462;53.156;8.220;2022-07-29T14:08:18;27.60;39.70
7658;DHT22;8462;53.156;8.220;2022-07-29T14:10:45;27.50;40.50
7658;DHT22;8462;53.156;8.220;2022-07-29T14:13:12;27.50;40.70
7658;DHT22;8462;53.156;8.220;2022-07-29T14:15:39;27.60;40.90
7658;DHT22;8462;53.156;8.220;2022-07-29T14:18:07;27.60;41.30
7658;DHT22;8462;53.156;8.220;2022-07-29T14:20:36;27.60;41.80
7658;DHT22;8462;53.156;8.220;2022-07-29T14:23:03;27.50;42.30
7658;DHT22;8462;53.156;8.220;2022-07-29T14:25:31;27.50;42.60
7658;DHT22;8462;53.156;8.220;2022-07-29T14:27:58;27.50;43.10
7658;DHT22;8462;53.156;8.220;2022-07-29T14:30:25;27.60;43.20
7658;DHT22;8462;53.156;8.220;2022-07-29T14:32:52;27.60;43.70
7658;DHT22;8462;53.156;8.220;2022-07-29T14:35:18;27.60;43.90
7658;DHT22;8462;53.156;8.220;2022-07-29T14:37:45;27.50;44.30
7658;DHT22;8462;53.156;8.220;2022-07-29T14:40:12;27.40;44.50
7658;DHT22;8462;53.156;8.220;2022-07-29T14:42:41;27.40;44.90
7658;DHT22;8462;53.156;8.220;2022-07-29T14:45:09;27.30;44.90
7658;DHT22;8462;53.156;8.220;2022-07-29T14:47:36;27.20;45.10
7658;DHT22;8462;53.156;8.220;2022-07-29T14:50:04;27.10;45.00
7658;DHT22;8462;53.156;8.220;2022-07-29T14:52:32;27.00;45.30
7658;DHT22;8462;53.156;8.220;2022-07-29T14:54:59;26.90;46.00
7658;DHT22;8462;53.156;8.220;2022-07-29T14:57:26;26.80;46.20
7658;DHT22;8462;53.156;8.220;2022-07-29T14:59:55;26.70;46.60
7658;DHT22;8462;53.156;8.220;2022-07-29T15:02:22;26.60;46.70
7658;DHT22;8462;53.156;8.220;2022-07-29T15:04:49;26.50;46.50
7658;DHT22;8462;53.156;8.220;2022-07-29T15:07:16;26.40;46.80
7658;DHT22;8462;53.156;8.220;2022-07-29T15:09:43;26.40;46.80
7658;DHT22;8462;53.156;8.220;2022-07-29T15:12:11;26.30;46.80
7658;DHT22;8462;53.156;8.220;2022-07-29T15:14:38;26.30;47.10
7658;DHT22;8462;53.156;8.220;2022-07-29T15:17:06;26.20;47.20
7658;DHT22;8462;53.156;8.220;2022-07-29T15:19:33;26.20;47.80
7658;DHT22;8462;53.156;8.220;2022-07-29T15:22:00;26.00;49.40
7658;DHT22;8462;53.156;8.220;2022-07-29T15:24:27;25.80;50.30
7658;DHT22;8462;53.156;8.220;2022-07-29T15:26:54;25.50;51.50
7658;DHT22;8462;53.156;8.220;2022-07-29T15:29:21;25.20;53.00
7658;DHT22;8462;53.156;8.220;2022-07-29T15:31:48;25.00;54.50
7658;DHT22;8462;53.156;8.220;2022-07-29T15:34:16;24.90;54.50
7658;DHT22;8462;53.156;8.220;2022-07-29T15:36:43;24.80;54.90
7658;DHT22;8462;53.156;8.220;2022-07-29T15:39:10;24.70;55.20
7658;DHT22;8462;53.156;8.220;2022-07-29T15:41:37;24.70;55.40
7658;DHT22;8462;53.156;8.220;2022-07-29T15:44:04;24.70;55.70
7658;DHT22;8462;53.156;8.220;2022-07-29T15:46:31;24.70;56.20
7658;DHT22;8462;53.156;8.220;2022-07-29T15:49:16;24.70;56.20
7658;DHT22;8462;53.156;8.220;2022-07-29T15:51:43;24.70;56.50
7658;DHT22;8462;53.156;8.220;2022-07-29T15:54:10;24.70;56.40
7658;DHT22;8462;53.156;8.220;2022-07-29T15:56:38;24.70;56.20
7658;DHT22;8462;53.156;8.220;2022-07-29T15:59:04;24.60;55.70
7658;DHT22;8462;53.156;8.220;2022-07-29T16:01:32;24.50;56.10
7658;DHT22;8462;53.156;8.220;2022-07-29T16:03:59;24.40;56.20
7658;DHT22;8462;53.156;8.220;2022-07-29T16:06:28;24.30;56.70
7658;DHT22;8462;53.156;8.220;2022-07-29T16:08:56;24.20;57.00
7658;DHT22;8462;53.156;8.220;2022-07-29T16:11:25;24.10;57.10
7658;DHT22;8462;53.156;8.220;2022-07-29T16:13:52;24.10;57.80
7658;DHT22;8462;53.156;8.220;2022-07-29T16:16:18;24.10;57.80
7658;DHT22;8462;53.156;8.220;2022-07-29T16:18:46;24.10;57.00
7658;DHT22;8462;53.156;8.220;2022-07-29T16:21:12;24.10;57.10